Denham Springs, LA

2:49 PM CDT on April 30, 2017 (GMT -0500)
| | Change Station
Active Advisory: Coastal Flood Advisory Active Notice: Coastal Flood Advisory

Elev -9999 ft 0.00 °N, 0.00 °E | Updated 2 minutes ago

Overcast
Overcast
°F
Feels Like °F
N
Wind Variable Wind from North
Gusts mph

Today
High -- | Low -- °F
--% Chance of Precip.
Yesterday
High -- | Low -- °F
Precip. -- in
Pressure 29.85 in
Visibility 10.0 miles
Clouds Mostly Cloudy 1100 ft
Dew Point Not available.
Humidity Not available.
Rainfall --
Snow Depth Not available.
6:20 AM 7:41 PM
Waxing Crescent, 25% visible
SPECI KBTR 301936Z 18007KT 10SM BKN011 23/20 A2985 RMK AO2 T02280200
Pressure 29.85 in
Visibility 10.0 miles
Clouds Mostly Cloudy 1100 ft
Dew Point Not available.
Humidity Not available.
Rainfall --
Snow Depth Not available.
6:20 AM 7:41 PM
Waxing Crescent, 25% visible
SPECI KBTR 301936Z 18007KT 10SM BKN011 23/20 A2985 RMK AO2 T02280200

Get Your Daily Forecast Email!

Thanks for signing up!

Be on the lookout for a verification email in your inbox.

You'll start receiving severe weather alerts in your inbox..

×

10-Day Weather Forecast

Almanac

Astronomy

Apr. 30, 2017 Rise Set
Actual Time
Civil Twilight
Nautical Twilight
Astronomical Twilight
Moon
Length of Visible Light
Length of Day
Tomorrow will be .
, % of the Moon is Illuminated

Today's Extremes

State Highs State Lows

Community

WunderPhotos

WunderBlog® & News

Nearby

Air Quality

  Air Quality AQ Index Pollutant
Not available.

Snow Depth

Station Depth Elevation

Earthquake Activity

City Distance Mag. Time & Date
Minimum magnitude displayed is 2.5.

Coastal Water Temperatures

Place Temperature

Stations

Nearby Weather Stations

Station Location Temp. Windchill Dew Point Humidity Wind Precip. Elev Updated Type
                   

Watches & Warnings

Coastal Flood Advisory
Issued: 4:08 AM CDT Apr. 30, 2017 – National Weather Service

... Coastal flood advisory remains in effect until midnight CDT
tonight...

* coastal flooding... tides 2 feet above normal today.

* Timing... astronomical high tides will be in the late morning
through early afternoon hours today.

* Impacts... moderate flooding of low lying areas and access roads
near tidal lakes... bays and inlets as well as the open coast
outside the hurricane protection levee systems.

Precautionary/preparedness actions...

A coastal flood advisory indicates that onshore winds and tides
will combine to generate flooding of low areas along the shore.